createdAt,value
2023-04-30T00:00:08.102Z,30.65
2023-04-30T00:00:49.871Z,34.13
2023-04-30T00:01:31.785Z,36.47
2023-04-30T00:02:13.977Z,36.15
2023-04-30T00:02:56.392Z,32.53
2023-04-30T00:03:38.657Z,31.00
2023-04-30T00:04:20.682Z,31.15
2023-04-30T00:05:02.854Z,31.63
2023-04-30T00:05:44.699Z,30.08
2023-04-30T00:06:28.332Z,29.85
2023-04-30T00:07:10.688Z,30.40
2023-04-30T00:07:52.512Z,30.80
2023-04-30T00:08:36.454Z,30.02
2023-04-30T00:09:18.223Z,30.38
2023-04-30T00:10:00.018Z,31.30
2023-04-30T00:10:41.973Z,33.05
2023-04-30T00:11:25.618Z,31.52
2023-04-30T00:12:09.525Z,32.15
2023-04-30T00:12:51.900Z,29.58
2023-04-30T00:13:34.650Z,29.95
2023-04-30T00:14:16.466Z,31.10
2023-04-30T00:14:58.481Z,31.13
2023-04-30T00:15:41.407Z,33.03
2023-04-30T00:16:23.722Z,30.85
2023-04-30T00:17:05.832Z,32.17
2023-04-30T00:17:47.601Z,30.98
2023-04-30T00:18:29.364Z,28.80
2023-04-30T00:19:11.206Z,30.00
2023-04-30T00:19:53.366Z,30.40
2023-04-30T00:20:35.686Z,31.23
2023-04-30T00:21:17.596Z,30.73
2023-04-30T00:22:01.583Z,32.92
2023-04-30T00:22:43.737Z,32.55
2023-04-30T00:23:25.784Z,30.02
2023-04-30T00:24:07.575Z,29.05
2023-04-30T00:24:51.894Z,29.30
2023-04-30T00:25:33.682Z,32.78
2023-04-30T00:26:15.633Z,28.55
2023-04-30T00:26:59.995Z,30.35
2023-04-30T00:27:41.936Z,28.02
2023-04-30T00:28:23.950Z,28.10
2023-04-30T00:29:05.766Z,28.38
2023-04-30T00:29:47.582Z,27.38
2023-04-30T00:30:29.417Z,28.75
2023-04-30T00:31:11.219Z,29.42
2023-04-30T00:31:53.181Z,29.42
2023-04-30T00:32:34.942Z,28.90
2023-04-30T00:33:17.028Z,30.35
2023-04-30T00:33:59.119Z,32.00
2023-04-30T00:34:43.627Z,30.17
2023-04-30T00:35:25.853Z,30.38
2023-04-30T00:36:07.785Z,29.52
2023-04-30T00:36:52.009Z,29.17
2023-04-30T00:37:34.109Z,30.27
2023-04-30T00:38:16.182Z,27.45
2023-04-30T00:38:58.186Z,28.80
2023-04-30T00:39:40.293Z,30.15
2023-04-30T00:40:22.157Z,30.15
2023-04-30T00:41:04.856Z,27.92
2023-04-30T00:41:46.663Z,27.20
2023-04-30T00:42:28.858Z,29.70
2023-04-30T00:43:10.935Z,29.10
2023-04-30T00:43:54.847Z,29.00
2023-04-30T00:44:36.807Z,29.90
2023-04-30T00:45:22.080Z,30.25
2023-04-30T00:46:06.715Z,29.02
2023-04-30T00:46:48.923Z,27.23
2023-04-30T00:47:32.218Z,27.23
2023-04-30T00:48:16.744Z,28.10
2023-04-30T00:49:00.178Z,28.08
2023-04-30T00:49:42.266Z,28.40
2023-04-30T00:50:24.910Z,31.58
2023-04-30T00:51:07.258Z,34.28
2023-04-30T00:51:51.074Z,27.48
2023-04-30T00:52:33.011Z,28.83
2023-04-30T00:53:14.917Z,31.63
2023-04-30T00:53:57.353Z,28.38
2023-04-30T00:54:39.987Z,30.00
2023-04-30T00:55:21.992Z,28.65
2023-04-30T00:56:04.947Z,28.65
2023-04-30T00:56:46.991Z,28.02
2023-04-30T00:57:29.293Z,28.02
2023-04-30T00:58:11.303Z,29.10
2023-04-30T00:58:57.042Z,26.63
2023-04-30T00:59:39.349Z,29.90
2023-04-30T01:00:22.156Z,29.52
2023-04-30T01:01:04.890Z,28.55
2023-04-30T01:01:47.285Z,30.70
2023-04-30T01:02:29.987Z,30.90
2023-04-30T01:03:11.913Z,28.00
2023-04-30T01:03:53.980Z,27.27
2023-04-30T01:04:36.107Z,27.95
2023-04-30T01:05:17.924Z,28.50
2023-04-30T01:06:00.038Z,27.73
2023-04-30T01:06:43.260Z,28.08
2023-04-30T01:07:28.341Z,31.40
2023-04-30T01:08:11.715Z,27.33
2023-04-30T01:08:53.984Z,29.75
2023-04-30T01:09:35.930Z,27.15
2023-04-30T01:10:20.844Z,31.05
2023-04-30T01:11:31.819Z,29.95
2023-04-30T01:12:32.081Z,26.23
2023-04-30T01:13:26.903Z,28.60
2023-04-30T01:14:19.269Z,28.85
2023-04-30T01:15:18.934Z,27.23
2023-04-30T01:16:08.120Z,26.88
2023-04-30T01:17:16.085Z,30.15
2023-04-30T01:18:06.151Z,25.52
2023-04-30T01:19:01.962Z,27.55
2023-04-30T01:19:45.949Z,26.88
2023-04-30T01:20:31.646Z,28.13
2023-04-30T01:21:15.843Z,27.75
2023-04-30T01:22:03.560Z,27.45
2023-04-30T01:22:48.070Z,26.83
2023-04-30T01:23:32.505Z,28.20
2023-04-30T01:24:43.985Z,27.80
2023-04-30T01:25:34.318Z,31.98
2023-04-30T01:26:29.962Z,29.52
2023-04-30T01:27:35.096Z,25.15
2023-04-30T01:28:20.196Z,27.50
2023-04-30T01:29:04.427Z,26.35
2023-04-30T01:29:46.450Z,26.83
2023-04-30T01:30:31.258Z,25.67
2023-04-30T01:31:19.060Z,25.65
2023-04-30T01:32:02.479Z,24.38
2023-04-30T01:32:46.732Z,26.27
2023-04-30T01:33:28.596Z,26.23
2023-04-30T01:34:11.138Z,24.73
2023-04-30T01:34:55.340Z,25.08
2023-04-30T01:35:52.240Z,28.17
2023-04-30T01:37:15.408Z,25.38
2023-04-30T01:38:11.228Z,26.42
2023-04-30T01:39:28.813Z,26.58
2023-04-30T01:40:22.193Z,23.50
2023-04-30T01:41:13.622Z,24.88
2023-04-30T01:42:13.065Z,26.45
2023-04-30T01:42:57.753Z,23.65
2023-04-30T01:44:09.239Z,22.55
2023-04-30T01:45:00.175Z,25.13
2023-04-30T01:45:50.371Z,23.20
2023-04-30T01:46:32.238Z,22.90
2023-04-30T01:47:31.284Z,22.90
2023-04-30T01:48:25.073Z,25.70
2023-04-30T01:49:27.167Z,25.05
2023-04-30T01:50:37.454Z,21.55
2023-04-30T01:51:43.550Z,22.08
2023-04-30T01:52:42.036Z,25.10
2023-04-30T01:53:43.516Z,22.48
2023-04-30T01:54:51.393Z,23.80
2023-04-30T01:56:06.422Z,22.20
2023-04-30T01:57:02.703Z,21.85
2023-04-30T01:58:00.186Z,23.23
2023-04-30T01:58:42.664Z,22.42
2023-04-30T01:59:25.384Z,22.27
2023-04-30T02:00:12.109Z,21.80
2023-04-30T02:00:54.347Z,22.08
2023-04-30T02:01:37.111Z,23.10
2023-04-30T02:02:21.093Z,21.58
2023-04-30T02:03:05.269Z,21.92
2023-04-30T02:03:47.274Z,22.80
2023-04-30T02:04:29.399Z,20.83
2023-04-30T02:05:11.262Z,23.20
2023-04-30T02:05:55.327Z,21.55
2023-04-30T02:06:37.269Z,20.67
2023-04-30T02:07:38.736Z,20.52
2023-04-30T02:08:21.145Z,21.05
2023-04-30T02:09:05.384Z,20.45
2023-04-30T02:09:47.244Z,20.52
2023-04-30T02:10:30.695Z,21.92
2023-04-30T02:11:12.766Z,24.75
2023-04-30T02:11:54.819Z,22.67
2023-04-30T02:12:36.886Z,21.50
2023-04-30T02:13:18.678Z,22.92
2023-04-30T02:14:00.903Z,24.90
2023-04-30T02:14:42.800Z,20.40
2023-04-30T02:15:27.130Z,22.20
2023-04-30T02:16:08.948Z,22.60
2023-04-30T02:16:51.262Z,22.50
2023-04-30T02:17:33.788Z,22.20
2023-04-30T02:18:15.993Z,22.50
2023-04-30T02:18:57.892Z,24.17
2023-04-30T02:19:39.932Z,21.35
2023-04-30T02:20:21.844Z,20.70
2023-04-30T02:21:03.662Z,21.05
2023-04-30T02:21:45.524Z,20.88
2023-04-30T02:22:27.779Z,20.80
2023-04-30T02:23:09.900Z,21.60
2023-04-30T02:23:51.820Z,23.80
2023-04-30T02:24:33.594Z,22.30
2023-04-30T02:25:15.590Z,21.65
2023-04-30T02:25:57.364Z,20.38
2023-04-30T02:26:39.506Z,22.75
2023-04-30T02:27:22.496Z,22.05
2023-04-30T02:28:04.874Z,20.92
2023-04-30T02:28:47.027Z,19.70
2023-04-30T02:29:28.803Z,20.55
2023-04-30T02:30:10.940Z,21.02
2023-04-30T02:30:52.858Z,21.52
2023-04-30T02:31:34.948Z,19.98
2023-04-30T02:32:16.893Z,19.58
2023-04-30T02:32:58.735Z,20.02
2023-04-30T02:33:40.967Z,20.42
2023-04-30T02:34:22.906Z,21.63
2023-04-30T02:35:05.689Z,21.38
2023-04-30T02:35:47.501Z,20.52
2023-04-30T02:36:29.712Z,19.50
2023-04-30T02:37:11.774Z,20.05
2023-04-30T02:37:53.605Z,20.38
2023-04-30T02:38:35.630Z,19.83
2023-04-30T02:39:17.467Z,20.35
2023-04-30T02:39:59.482Z,19.95
2023-04-30T02:40:42.659Z,19.23
2023-04-30T02:41:24.546Z,20.77
2023-04-30T02:42:07.439Z,19.63
2023-04-30T02:42:49.568Z,21.83
2023-04-30T02:43:31.346Z,18.23
2023-04-30T02:44:15.487Z,20.67
2023-04-30T02:44:57.960Z,21.75
2023-04-30T02:45:40.053Z,18.55
2023-04-30T02:46:22.850Z,20.60
2023-04-30T02:47:07.406Z,22.30
2023-04-30T02:47:49.618Z,19.95
2023-04-30T02:48:31.396Z,19.15
2023-04-30T02:49:15.294Z,20.25
2023-04-30T02:49:57.179Z,20.83
2023-04-30T02:50:39.497Z,19.52
2023-04-30T02:51:21.456Z,21.45
2023-04-30T02:52:05.394Z,20.65
2023-04-30T02:52:47.366Z,19.80
2023-04-30T02:53:31.248Z,21.05
2023-04-30T02:54:13.129Z,20.60
2023-04-30T02:54:57.485Z,21.52
2023-04-30T02:55:39.549Z,21.27
2023-04-30T02:56:21.428Z,21.63
2023-04-30T02:57:03.799Z,22.10
2023-04-30T02:57:45.681Z,22.55
2023-04-30T02:58:27.480Z,21.70
2023-04-30T02:59:09.625Z,21.25
2023-04-30T02:59:51.890Z,20.90
2023-04-30T03:00:33.774Z,21.58
2023-04-30T03:01:16.121Z,21.13
2023-04-30T03:01:58.098Z,22.45
2023-04-30T03:02:40.564Z,21.48
2023-04-30T03:03:22.668Z,22.13
2023-04-30T03:04:04.990Z,21.98
2023-04-30T03:04:46.963Z,21.83
2023-04-30T03:05:28.848Z,21.17
2023-04-30T03:06:10.718Z,19.92
2023-04-30T03:06:52.536Z,19.70
2023-04-30T03:07:34.747Z,20.55
2023-04-30T03:08:16.583Z,25.10
2023-04-30T03:08:59.180Z,23.10
2023-04-30T03:09:41.434Z,24.13
2023-04-30T03:10:25.516Z,28.50
2023-04-30T03:11:07.516Z,25.83
2023-04-30T03:11:49.785Z,23.83
2023-04-30T03:12:31.558Z,21.67
2023-04-30T03:13:15.559Z,21.67
2023-04-30T03:13:57.491Z,24.55
2023-04-30T03:14:41.416Z,23.80
2023-04-30T03:15:23.190Z,25.05
2023-04-30T03:16:05.785Z,24.33
2023-04-30T03:16:47.919Z,21.55
2023-04-30T03:17:30.578Z,23.58
2023-04-30T03:18:12.587Z,23.70
2023-04-30T03:18:56.472Z,23.02
2023-04-30T03:19:40.717Z,23.48
2023-04-30T03:20:22.607Z,25.17
2023-04-30T03:21:04.641Z,24.75
2023-04-30T03:21:46.524Z,21.48
2023-04-30T03:22:30.714Z,21.25
2023-04-30T03:23:12.506Z,21.75
2023-04-30T03:23:54.274Z,21.33
2023-04-30T03:24:38.814Z,23.23
2023-04-30T03:25:20.850Z,20.60
2023-04-30T03:26:02.752Z,21.35
2023-04-30T03:26:44.735Z,21.42
2023-04-30T03:27:28.853Z,20.17
2023-04-30T03:28:10.608Z,21.13
2023-04-30T03:28:52.605Z,19.30
2023-04-30T03:29:34.783Z,20.02
2023-04-30T03:30:16.712Z,21.25
2023-04-30T03:30:59.712Z,19.58
2023-04-30T03:31:41.617Z,18.40
2023-04-30T03:32:23.461Z,18.92
2023-04-30T03:33:08.296Z,19.98
2023-04-30T03:33:50.288Z,20.25
2023-04-30T03:34:32.582Z,20.90
2023-04-30T03:35:15.028Z,21.30
2023-04-30T03:35:56.941Z,20.30
2023-04-30T03:36:38.788Z,18.92
2023-04-30T03:37:20.863Z,17.75
2023-04-30T03:38:02.783Z,19.40
2023-04-30T03:38:46.919Z,21.25
2023-04-30T03:39:28.691Z,21.20
2023-04-30T03:40:11.027Z,20.88
2023-04-30T03:40:52.893Z,20.45
2023-04-30T03:41:34.949Z,21.55
2023-04-30T03:42:16.688Z,19.67
2023-04-30T03:43:00.789Z,18.27
2023-04-30T03:43:42.566Z,20.45
2023-04-30T03:44:24.442Z,19.52
2023-04-30T03:45:06.784Z,18.50
2023-04-30T03:45:51.003Z,21.52
2023-04-30T03:46:32.852Z,21.05
2023-04-30T03:47:15.188Z,17.83
2023-04-30T03:47:57.224Z,18.60
2023-04-30T03:48:39.030Z,19.52
2023-04-30T03:49:20.813Z,19.15
2023-04-30T03:50:05.849Z,18.42
2023-04-30T03:50:47.913Z,20.67
2023-04-30T03:51:30.174Z,20.65
2023-04-30T03:52:12.121Z,18.58
2023-04-30T03:52:56.025Z,19.42
2023-04-30T03:53:37.850Z,19.45
2023-04-30T03:54:20.070Z,20.25
2023-04-30T03:55:01.882Z,19.60
2023-04-30T03:55:46.067Z,19.50
2023-04-30T03:56:27.888Z,17.88
2023-04-30T03:57:10.780Z,19.67
2023-04-30T03:57:52.719Z,20.23
2023-04-30T03:58:36.539Z,23.27
2023-04-30T03:59:18.389Z,20.60
2023-04-30T04:00:00.859Z,19.90
2023-04-30T04:00:42.878Z,19.30
2023-04-30T04:01:24.853Z,18.33
2023-04-30T04:02:07.436Z,18.70
2023-04-30T04:02:49.445Z,21.15
2023-04-30T04:03:31.473Z,19.75
2023-04-30T04:04:16.027Z,19.27
2023-04-30T04:04:57.911Z,20.05
2023-04-30T04:05:40.551Z,17.55
2023-04-30T04:06:22.664Z,22.05
2023-04-30T04:07:07.874Z,21.95
2023-04-30T04:07:50.230Z,20.15
2023-04-30T04:08:32.761Z,19.40
2023-04-30T04:09:16.865Z,20.70
2023-04-30T04:10:00.959Z,20.23
2023-04-30T04:10:43.218Z,19.52
2023-04-30T04:11:25.221Z,18.75
2023-04-30T04:12:06.987Z,19.35
2023-04-30T04:12:51.165Z,19.63
2023-04-30T04:13:33.024Z,20.77
2023-04-30T04:14:15.394Z,18.45
2023-04-30T04:14:57.482Z,18.75
2023-04-30T04:15:39.319Z,21.83
2023-04-30T04:16:22.248Z,21.67
2023-04-30T04:17:05.807Z,22.08
2023-04-30T04:17:48.132Z,21.95
2023-04-30T04:18:30.915Z,22.45
2023-04-30T04:19:13.417Z,19.80
2023-04-30T04:19:55.664Z,18.70
2023-04-30T04:20:37.652Z,18.25
2023-04-30T04:21:19.430Z,18.98
2023-04-30T04:22:01.436Z,20.63
2023-04-30T04:22:43.384Z,19.65
2023-04-30T04:23:25.945Z,19.63
2023-04-30T04:24:10.911Z,19.25
2023-04-30T04:24:52.773Z,19.55
2023-04-30T04:25:35.468Z,19.52
2023-04-30T04:26:19.663Z,18.30
2023-04-30T04:27:03.014Z,20.13
2023-04-30T04:27:45.926Z,21.45
2023-04-30T04:28:27.746Z,22.10
2023-04-30T04:29:10.941Z,19.90
2023-04-30T04:29:53.019Z,17.65
2023-04-30T04:30:36.694Z,18.15
2023-04-30T04:31:18.734Z,19.30
2023-04-30T04:32:02.830Z,19.10
2023-04-30T04:32:48.366Z,19.30
2023-04-30T04:33:31.004Z,18.15
2023-04-30T04:34:13.020Z,19.58
2023-04-30T04:34:56.979Z,18.13
2023-04-30T04:35:41.128Z,18.85
2023-04-30T04:36:23.438Z,21.85
2023-04-30T04:37:05.902Z,17.10
2023-04-30T04:37:47.719Z,19.25
2023-04-30T04:38:32.314Z,20.58
2023-04-30T04:39:14.519Z,18.02
2023-04-30T04:39:56.754Z,17.33
2023-04-30T04:40:41.337Z,20.42
2023-04-30T04:41:26.664Z,19.75
2023-04-30T04:42:08.519Z,18.52
2023-04-30T04:42:53.560Z,18.63
2023-04-30T04:43:37.110Z,19.35
2023-04-30T04:44:21.582Z,21.17
2023-04-30T04:45:06.326Z,17.50
2023-04-30T04:45:48.553Z,17.63
2023-04-30T04:46:31.766Z,18.08
2023-04-30T04:47:13.698Z,17.00
2023-04-30T04:47:56.099Z,17.52
2023-04-30T04:48:38.104Z,17.88
2023-04-30T04:49:20.973Z,17.90
2023-04-30T04:50:03.297Z,19.90
2023-04-30T04:50:46.248Z,20.15
2023-04-30T04:51:28.052Z,17.50
2023-04-30T04:52:10.547Z,18.30
2023-04-30T04:52:52.460Z,19.02
2023-04-30T04:53:36.692Z,18.90
2023-04-30T04:54:18.554Z,17.70
2023-04-30T04:55:00.510Z,20.30
2023-04-30T04:55:42.505Z,21.30
2023-04-30T04:56:26.364Z,20.50
2023-04-30T04:57:08.187Z,18.00
2023-04-30T04:57:50.512Z,17.95
2023-04-30T04:58:32.826Z,19.00
2023-04-30T04:59:15.420Z,16.83
2023-04-30T04:59:57.572Z,19.60
2023-04-30T05:00:39.562Z,22.10
2023-04-30T05:01:22.084Z,20.20
2023-04-30T05:02:06.333Z,18.38
2023-04-30T05:02:48.363Z,18.05
2023-04-30T05:03:31.621Z,18.70
2023-04-30T05:04:14.103Z,18.63
2023-04-30T05:04:56.375Z,19.48
2023-04-30T05:05:38.166Z,21.10
2023-04-30T05:06:20.545Z,18.13
2023-04-30T05:07:03.084Z,18.85
2023-04-30T05:07:45.442Z,19.65
2023-04-30T05:08:27.539Z,18.80
2023-04-30T05:09:09.650Z,19.02
2023-04-30T05:09:51.611Z,18.23
2023-04-30T05:10:37.218Z,21.60
2023-04-30T05:11:21.392Z,18.70
2023-04-30T05:12:03.599Z,18.83
2023-04-30T05:12:46.174Z,18.30
2023-04-30T05:13:28.000Z,18.42
2023-04-30T05:14:12.243Z,17.35
2023-04-30T05:14:54.104Z,17.45
2023-04-30T05:15:36.153Z,17.40
2023-04-30T05:16:18.042Z,17.00
2023-04-30T05:17:02.346Z,17.88
2023-04-30T05:17:46.613Z,17.77
2023-04-30T05:18:28.489Z,18.17
2023-04-30T05:19:10.445Z,16.73
2023-04-30T05:19:53.489Z,15.90
2023-04-30T05:20:36.082Z,17.20
2023-04-30T05:21:17.888Z,19.70
2023-04-30T05:22:01.295Z,18.77
2023-04-30T05:22:43.118Z,17.63
2023-04-30T05:23:25.716Z,19.15
2023-04-30T05:24:07.970Z,20.05
2023-04-30T05:24:51.361Z,20.88
2023-04-30T05:25:33.141Z,19.08
2023-04-30T05:26:15.637Z,21.83
2023-04-30T05:26:57.619Z,22.70
2023-04-30T05:27:41.531Z,19.73
2023-04-30T05:28:23.347Z,20.23
2023-04-30T05:29:05.148Z,22.08
2023-04-30T05:29:47.032Z,23.42
2023-04-30T05:30:31.420Z,20.67
2023-04-30T05:31:13.235Z,19.58
2023-04-30T05:31:55.139Z,18.33
2023-04-30T05:32:37.008Z,19.88
2023-04-30T05:33:19.099Z,20.75
2023-04-30T05:34:01.131Z,21.27
2023-04-30T05:34:42.924Z,19.40
2023-04-30T05:35:24.820Z,19.58
2023-04-30T05:36:06.741Z,19.52
2023-04-30T05:36:49.062Z,18.65
2023-04-30T05:37:31.200Z,18.98
2023-04-30T05:38:13.035Z,20.35
2023-04-30T05:38:54.917Z,21.95
2023-04-30T05:39:36.694Z,20.75
2023-04-30T05:40:18.739Z,22.67
2023-04-30T05:41:01.312Z,21.80
2023-04-30T05:41:43.411Z,21.45
2023-04-30T05:42:25.753Z,22.02
2023-04-30T05:43:07.618Z,23.60
2023-04-30T05:43:51.877Z,25.40
2023-04-30T05:44:33.702Z,23.83
2023-04-30T05:45:17.292Z,25.05
2023-04-30T05:46:01.557Z,22.10
2023-04-30T05:46:43.463Z,23.40
2023-04-30T05:47:25.682Z,23.45
2023-04-30T05:48:07.484Z,23.23
2023-04-30T05:48:51.359Z,23.38
2023-04-30T05:49:35.622Z,22.20
2023-04-30T05:50:17.899Z,24.55
2023-04-30T05:50:59.701Z,22.67
2023-04-30T05:51:41.456Z,21.83
2023-04-30T05:52:23.393Z,22.48
2023-04-30T05:53:07.252Z,21.10
2023-04-30T05:53:49.036Z,20.98
2023-04-30T05:54:31.452Z,20.63
2023-04-30T05:55:13.839Z,21.98
2023-04-30T05:55:55.723Z,24.75
2023-04-30T05:56:37.499Z,22.38
2023-04-30T05:57:21.534Z,25.20
2023-04-30T05:58:03.382Z,23.23
2023-04-30T05:58:45.749Z,22.25
2023-04-30T05:59:27.555Z,23.50
2023-04-30T06:00:09.883Z,21.80
2023-04-30T06:00:52.442Z,20.25
2023-04-30T06:01:36.537Z,23.38
2023-04-30T06:02:18.401Z,21.67
2023-04-30T06:03:00.945Z,19.70
2023-04-30T06:03:42.812Z,19.88
2023-04-30T06:04:26.855Z,21.02
2023-04-30T06:05:12.410Z,18.98
2023-04-30T06:05:56.476Z,20.10
2023-04-30T06:06:38.419Z,20.20
2023-04-30T06:07:20.638Z,20.95
2023-04-30T06:08:02.517Z,21.35
2023-04-30T06:08:45.888Z,19.52
2023-04-30T06:09:27.877Z,21.55
2023-04-30T06:10:10.175Z,20.25
2023-04-30T06:10:52.092Z,20.25
2023-04-30T06:11:33.889Z,18.67
2023-04-30T06:12:15.951Z,19.20
2023-04-30T06:12:57.925Z,21.58
2023-04-30T06:13:40.478Z,19.90
2023-04-30T06:14:25.853Z,19.98
2023-04-30T06:15:08.049Z,19.58
2023-04-30T06:15:49.885Z,19.20
2023-04-30T06:16:31.782Z,19.17
2023-04-30T06:17:14.067Z,20.20
2023-04-30T06:17:56.499Z,19.90
2023-04-30T06:18:38.337Z,19.90
2023-04-30T06:19:20.922Z,20.75
2023-04-30T06:20:06.910Z,18.88
2023-04-30T06:20:48.814Z,19.67
2023-04-30T06:21:31.916Z,19.85
2023-04-30T06:22:13.715Z,20.77
2023-04-30T06:22:56.008Z,18.98
2023-04-30T06:23:37.888Z,18.05
2023-04-30T06:24:21.947Z,19.10
2023-04-30T06:25:03.924Z,19.27
2023-04-30T06:25:45.798Z,18.77
2023-04-30T06:26:27.858Z,18.80
2023-04-30T06:27:12.071Z,20.33
2023-04-30T06:27:54.206Z,18.73
2023-04-30T06:28:36.647Z,21.15
2023-04-30T06:29:18.471Z,20.27
2023-04-30T06:30:01.141Z,20.45
2023-04-30T06:30:43.732Z,18.67
2023-04-30T06:31:26.590Z,19.65
2023-04-30T06:32:08.652Z,22.13
2023-04-30T06:32:51.616Z,20.38
2023-04-30T06:33:33.389Z,21.40
2023-04-30T06:34:15.227Z,18.83
2023-04-30T06:34:57.187Z,19.90
2023-04-30T06:35:39.134Z,20.00
2023-04-30T06:36:21.293Z,21.63
2023-04-30T06:37:03.503Z,20.70
2023-04-30T06:37:46.102Z,21.92
2023-04-30T06:38:27.979Z,20.60
2023-04-30T06:39:11.872Z,21.15
2023-04-30T06:39:54.041Z,18.65
2023-04-30T06:40:36.751Z,19.73
2023-04-30T06:41:19.363Z,20.83
2023-04-30T06:42:01.717Z,18.77
2023-04-30T06:42:44.507Z,22.35
2023-04-30T06:43:27.512Z,23.50
2023-04-30T06:44:09.444Z,20.95
2023-04-30T06:44:51.792Z,20.92
2023-04-30T06:45:33.832Z,23.48
2023-04-30T06:46:16.634Z,21.27
2023-04-30T06:46:58.520Z,20.17
2023-04-30T06:47:42.839Z,20.20
2023-04-30T06:48:27.039Z,20.40
2023-04-30T06:49:08.852Z,19.85
2023-04-30T06:49:51.187Z,19.60
2023-04-30T06:50:33.048Z,23.45
2023-04-30T06:51:14.788Z,21.55
2023-04-30T06:51:58.519Z,19.70
2023-04-30T06:52:41.108Z,19.25
2023-04-30T06:53:22.926Z,20.00
2023-04-30T06:54:07.062Z,21.15
2023-04-30T06:54:48.884Z,19.38
2023-04-30T06:55:31.287Z,18.90
2023-04-30T06:56:13.267Z,20.60
2023-04-30T06:56:57.570Z,19.98
2023-04-30T06:57:42.328Z,20.60
2023-04-30T06:58:24.097Z,20.45
2023-04-30T06:59:06.498Z,19.80
2023-04-30T06:59:48.270Z,22.00
2023-04-30T07:00:32.136Z,23.25
2023-04-30T07:01:14.064Z,21.70
2023-04-30T07:01:56.305Z,20.40
2023-04-30T07:02:38.692Z,18.98
2023-04-30T07:03:23.571Z,20.92
2023-04-30T07:04:05.521Z,20.55
2023-04-30T07:04:47.408Z,19.77
2023-04-30T07:05:32.469Z,19.27
2023-04-30T07:06:16.726Z,20.40
2023-04-30T07:06:58.510Z,24.42
2023-04-30T07:07:41.506Z,21.67
2023-04-30T07:08:23.320Z,19.95
2023-04-30T07:09:07.214Z,23.52
2023-04-30T07:09:50.360Z,25.95
2023-04-30T07:10:33.494Z,22.10
2023-04-30T07:11:15.261Z,20.45
2023-04-30T07:11:58.675Z,19.60
2023-04-30T07:12:40.543Z,20.35
2023-04-30T07:13:22.380Z,19.40
2023-04-30T07:14:04.201Z,19.63
2023-04-30T07:14:46.360Z,17.65
2023-04-30T07:15:28.200Z,18.00
2023-04-30T07:16:13.099Z,21.48
2023-04-30T07:16:56.380Z,19.83
2023-04-30T07:17:38.680Z,21.02
2023-04-30T07:18:20.549Z,23.23
2023-04-30T07:19:02.521Z,19.88
2023-04-30T07:19:44.329Z,18.73
2023-04-30T07:20:26.369Z,19.05
2023-04-30T07:21:08.695Z,17.65
2023-04-30T07:21:50.425Z,19.83
2023-04-30T07:22:32.379Z,19.45
2023-04-30T07:23:14.138Z,19.23
2023-04-30T07:23:56.350Z,22.30
2023-04-30T07:24:38.206Z,18.50
2023-04-30T07:25:22.404Z,18.50
2023-04-30T07:26:04.316Z,17.75
2023-04-30T07:26:46.397Z,19.23
2023-04-30T07:27:28.394Z,20.02
2023-04-30T07:28:12.512Z,18.42
2023-04-30T07:28:54.539Z,18.35
2023-04-30T07:29:37.321Z,18.58
2023-04-30T07:30:19.158Z,18.20
2023-04-30T07:31:02.110Z,18.80
2023-04-30T07:31:44.352Z,20.07
2023-04-30T07:32:27.494Z,18.98
2023-04-30T07:33:09.657Z,21.83
2023-04-30T07:33:52.344Z,17.27
2023-04-30T07:34:34.107Z,18.88
2023-04-30T07:35:16.598Z,17.25
2023-04-30T07:35:59.022Z,16.98
2023-04-30T07:36:41.322Z,19.05
2023-04-30T07:37:23.088Z,17.27
2023-04-30T07:38:06.453Z,20.02
2023-04-30T07:38:48.496Z,19.27
2023-04-30T07:39:31.340Z,15.93
2023-04-30T07:40:15.433Z,17.52
2023-04-30T07:40:59.195Z,18.52
2023-04-30T07:41:41.424Z,16.58
2023-04-30T07:42:23.289Z,16.98
2023-04-30T07:43:07.654Z,16.73
2023-04-30T07:43:49.494Z,18.38
2023-04-30T07:44:31.967Z,19.08
2023-04-30T07:45:13.983Z,18.00
2023-04-30T07:45:57.834Z,16.90
2023-04-30T07:46:42.086Z,16.17
2023-04-30T07:47:24.030Z,17.02
2023-04-30T07:48:06.154Z,16.88
2023-04-30T07:48:47.994Z,18.67
2023-04-30T07:49:31.870Z,16.85
2023-04-30T07:50:16.942Z,16.80
2023-04-30T07:50:58.836Z,16.17
2023-04-30T07:51:42.366Z,16.13
2023-04-30T07:52:24.168Z,16.90
2023-04-30T07:53:09.430Z,15.98
2023-04-30T07:53:53.215Z,16.02
2023-04-30T07:54:36.518Z,19.25
2023-04-30T07:55:18.382Z,15.68
2023-04-30T07:56:00.145Z,15.25
2023-04-30T07:56:42.761Z,17.50
2023-04-30T07:57:27.008Z,16.67
2023-04-30T07:58:08.845Z,15.88
2023-04-30T07:58:50.610Z,14.82
2023-04-30T07:59:33.046Z,14.15
2023-04-30T08:00:15.690Z,14.77
2023-04-30T08:00:57.667Z,14.73
2023-04-30T08:01:39.593Z,14.23
2023-04-30T08:02:22.156Z,16.83
2023-04-30T08:03:04.059Z,14.27
2023-04-30T08:03:46.636Z,14.45
2023-04-30T08:04:29.126Z,15.35
2023-04-30T08:05:11.305Z,14.00
2023-04-30T08:05:53.319Z,13.38
2023-04-30T08:06:37.336Z,16.42
2023-04-30T08:07:21.075Z,16.50
2023-04-30T08:08:04.048Z,14.20
2023-04-30T08:08:47.377Z,15.23
2023-04-30T08:09:31.488Z,15.15
2023-04-30T08:10:13.577Z,15.38
2023-04-30T08:10:55.348Z,16.42
2023-04-30T08:11:37.221Z,15.68
2023-04-30T08:12:19.090Z,16.15
2023-04-30T08:13:01.529Z,15.27
2023-04-30T08:13:43.339Z,14.80
2023-04-30T08:14:27.329Z,14.07
2023-04-30T08:15:09.154Z,13.75
2023-04-30T08:15:53.092Z,13.77
2023-04-30T08:16:37.257Z,14.63
2023-04-30T08:17:19.041Z,14.82
2023-04-30T08:18:00.950Z,14.50
2023-04-30T08:18:46.653Z,14.15
2023-04-30T08:19:28.486Z,15.18
2023-04-30T08:20:10.719Z,13.75
2023-04-30T08:20:52.574Z,13.98
2023-04-30T08:21:34.374Z,13.02
2023-04-30T08:22:16.611Z,11.63
2023-04-30T08:22:58.800Z,14.57
2023-04-30T08:23:40.707Z,14.95
2023-04-30T08:24:22.576Z,13.18
2023-04-30T08:25:04.702Z,12.82
2023-04-30T08:25:47.183Z,13.10
2023-04-30T08:26:28.988Z,11.93
2023-04-30T08:27:10.759Z,13.85
2023-04-30T08:27:52.631Z,13.63
2023-04-30T08:28:34.460Z,11.70
2023-04-30T08:29:16.690Z,15.48
2023-04-30T08:29:58.708Z,11.95
2023-04-30T08:30:42.841Z,11.85
2023-04-30T08:31:24.842Z,11.85
2023-04-30T08:32:07.251Z,14.98
2023-04-30T08:32:49.991Z,12.40
2023-04-30T08:33:32.339Z,12.65
2023-04-30T08:34:14.351Z,11.80
2023-04-30T08:34:56.835Z,11.75
2023-04-30T08:35:38.771Z,14.73
2023-04-30T08:36:20.640Z,13.75
2023-04-30T08:37:02.489Z,13.90
2023-04-30T08:37:44.417Z,14.90
2023-04-30T08:38:28.150Z,15.57
2023-04-30T08:39:12.727Z,13.93
2023-04-30T08:39:54.918Z,12.50
2023-04-30T08:40:50.923Z,10.70
2023-04-30T08:41:34.365Z,13.40
2023-04-30T08:42:18.976Z,14.15
2023-04-30T08:43:06.812Z,11.48
2023-04-30T08:43:52.876Z,11.18
2023-04-30T08:44:39.672Z,12.65
2023-04-30T08:45:22.543Z,11.75
2023-04-30T08:46:05.921Z,12.68
2023-04-30T08:46:51.755Z,12.82
2023-04-30T08:47:33.747Z,12.48
2023-04-30T08:48:17.000Z,11.40
2023-04-30T08:48:59.285Z,11.40
2023-04-30T08:49:41.862Z,11.63
2023-04-30T08:50:23.751Z,12.60
2023-04-30T08:51:05.756Z,13.18
2023-04-30T08:51:47.860Z,16.58
2023-04-30T08:52:31.743Z,12.60
2023-04-30T08:53:15.862Z,12.32
2023-04-30T08:53:58.226Z,12.23
2023-04-30T08:54:40.089Z,13.43
2023-04-30T08:55:22.454Z,13.23
2023-04-30T08:56:04.950Z,11.60
2023-04-30T08:56:47.291Z,10.57
2023-04-30T08:57:29.254Z,11.60
2023-04-30T08:58:11.737Z,9.80
2023-04-30T08:58:53.566Z,11.43
2023-04-30T08:59:35.490Z,10.32
2023-04-30T09:00:17.691Z,11.77
2023-04-30T09:01:01.348Z,10.75
2023-04-30T09:01:43.405Z,10.85
2023-04-30T09:02:25.437Z,11.25
2023-04-30T09:03:08.581Z,10.50
2023-04-30T09:03:50.810Z,10.45
2023-04-30T09:04:33.528Z,10.40
2023-04-30T09:05:16.085Z,10.32
2023-04-30T09:05:58.331Z,13.90
2023-04-30T09:06:40.224Z,13.02
2023-04-30T09:07:27.549Z,11.75
2023-04-30T09:08:09.526Z,11.25
2023-04-30T09:08:52.761Z,10.43
2023-04-30T09:09:40.920Z,8.98
2023-04-30T09:10:23.172Z,8.40
2023-04-30T09:11:22.123Z,8.25
2023-04-30T09:12:18.802Z,7.93
2023-04-30T09:13:10.348Z,7.20
2023-04-30T09:13:55.866Z,8.40
2023-04-30T09:14:42.575Z,7.45
2023-04-30T09:15:24.475Z,7.68
2023-04-30T09:16:06.914Z,7.72
2023-04-30T09:16:50.900Z,7.07
2023-04-30T09:17:34.344Z,10.20
2023-04-30T09:18:18.683Z,9.45
2023-04-30T09:19:00.761Z,8.68
2023-04-30T09:19:43.112Z,8.68
2023-04-30T09:20:28.366Z,8.60
2023-04-30T09:21:12.416Z,9.20